createdAt,value
2023-06-19T00:01:38.844Z,10.52
2023-06-19T00:04:05.410Z,11.60
2023-06-19T00:06:31.901Z,9.73
2023-06-19T00:08:58.398Z,9.40
2023-06-19T00:11:24.921Z,9.82
2023-06-19T00:13:51.690Z,9.95
2023-06-19T00:16:19.069Z,10.02
2023-06-19T00:18:45.760Z,10.25
2023-06-19T00:21:12.410Z,11.30
2023-06-19T00:23:39.162Z,13.13
2023-06-19T00:26:05.655Z,8.70
2023-06-19T00:28:32.432Z,8.55
2023-06-19T00:30:59.134Z,9.48
2023-06-19T00:33:25.635Z,8.87
2023-06-19T00:35:52.808Z,11.25
2023-06-19T00:38:19.331Z,9.55
2023-06-19T00:40:45.812Z,11.10
2023-06-19T00:43:12.366Z,11.13
2023-06-19T00:45:39.868Z,9.57
2023-06-19T00:48:06.786Z,9.15
2023-06-19T00:50:33.806Z,11.25
2023-06-19T00:53:03.588Z,11.93
2023-06-19T00:55:33.740Z,9.10
2023-06-19T00:58:02.060Z,8.23
2023-06-19T01:00:28.616Z,8.45
2023-06-19T01:02:55.312Z,9.50
2023-06-19T01:05:22.244Z,11.48
2023-06-19T01:08:01.359Z,10.85
2023-06-19T01:10:37.675Z,9.47
2023-06-19T01:13:11.763Z,8.52
2023-06-19T01:15:41.735Z,7.50
2023-06-19T01:18:09.069Z,9.90
2023-06-19T01:20:35.993Z,5.78
2023-06-19T01:23:10.103Z,6.37
2023-06-19T01:25:36.982Z,6.50
2023-06-19T01:28:06.792Z,8.85
2023-06-19T01:30:35.323Z,6.93
2023-06-19T01:33:10.407Z,6.03
2023-06-19T01:35:39.685Z,5.97
2023-06-19T01:38:07.431Z,5.45
2023-06-19T01:40:35.371Z,10.23
2023-06-19T01:43:03.200Z,4.45
2023-06-19T01:45:30.782Z,4.35
2023-06-19T01:47:58.033Z,5.23
2023-06-19T01:50:25.579Z,4.60
2023-06-19T01:52:53.057Z,2.42
2023-06-19T01:55:20.026Z,3.22
2023-06-19T01:57:49.477Z,6.88
2023-06-19T02:00:16.323Z,4.60
2023-06-19T02:02:42.927Z,4.13
2023-06-19T02:05:09.630Z,6.03
2023-06-19T02:07:36.244Z,2.95
2023-06-19T02:10:02.893Z,4.93
2023-06-19T02:12:30.317Z,3.30
2023-06-19T02:14:57.168Z,4.22
2023-06-19T02:17:23.686Z,4.28
2023-06-19T02:19:50.175Z,6.68
2023-06-19T02:22:19.131Z,3.92
2023-06-19T02:24:45.829Z,4.17
2023-06-19T02:27:12.354Z,3.40
2023-06-19T02:29:38.842Z,3.17
2023-06-19T02:32:05.716Z,3.17
2023-06-19T02:34:32.250Z,5.50
2023-06-19T02:36:58.718Z,5.00
2023-06-19T02:39:25.485Z,3.95
2023-06-19T02:41:52.104Z,4.72
2023-06-19T02:44:18.745Z,3.88
2023-06-19T02:46:45.240Z,3.88
2023-06-19T02:49:11.707Z,6.30
2023-06-19T02:51:39.429Z,5.40
2023-06-19T02:54:07.952Z,4.32
2023-06-19T02:56:34.488Z,4.57
2023-06-19T02:59:01.068Z,5.20
2023-06-19T03:01:27.946Z,5.30
2023-06-19T03:03:54.397Z,3.13
2023-06-19T03:06:20.939Z,3.95
2023-06-19T03:08:47.494Z,5.68
2023-06-19T03:11:14.220Z,6.13
2023-06-19T03:13:52.090Z,5.10
2023-06-19T03:16:19.148Z,4.20
2023-06-19T03:18:46.158Z,4.00
2023-06-19T03:21:14.034Z,3.97
2023-06-19T03:23:42.355Z,4.65
2023-06-19T03:26:09.705Z,6.30
2023-06-19T03:28:36.163Z,7.03
2023-06-19T03:31:02.787Z,4.45
2023-06-19T03:33:29.298Z,6.95
2023-06-19T03:35:56.503Z,4.78
2023-06-19T03:38:23.000Z,6.93
2023-06-19T03:40:49.485Z,5.85
2023-06-19T03:43:16.003Z,6.70
2023-06-19T03:45:42.517Z,5.85
2023-06-19T03:48:09.270Z,5.80
2023-06-19T03:50:36.064Z,5.07
2023-06-19T03:53:02.709Z,6.40
2023-06-19T03:55:29.277Z,6.50
2023-06-19T03:57:55.746Z,6.50
2023-06-19T04:00:22.718Z,6.95
2023-06-19T04:02:49.595Z,6.77
2023-06-19T04:05:16.750Z,7.93
2023-06-19T04:07:43.456Z,9.40
2023-06-19T04:10:11.041Z,9.90
2023-06-19T04:12:37.503Z,11.95
2023-06-19T04:15:05.055Z,9.30
2023-06-19T04:17:31.748Z,8.93
2023-06-19T04:19:58.254Z,9.63
2023-06-19T04:22:24.823Z,11.30
2023-06-19T04:24:51.405Z,10.85
2023-06-19T04:27:17.926Z,10.83
2023-06-19T04:29:45.127Z,12.50
2023-06-19T04:32:12.664Z,13.68
2023-06-19T04:34:40.167Z,13.45
2023-06-19T04:37:06.830Z,15.23
2023-06-19T04:39:33.498Z,16.90
2023-06-19T04:42:00.510Z,13.45
2023-06-19T04:44:26.997Z,16.02
2023-06-19T04:47:02.648Z,12.65
2023-06-19T04:49:31.403Z,12.90
2023-06-19T04:51:58.670Z,11.90
2023-06-19T04:54:26.158Z,12.55
2023-06-19T04:56:53.552Z,11.65
2023-06-19T04:59:20.172Z,8.05
2023-06-19T05:01:47.101Z,7.55
2023-06-19T05:04:13.795Z,6.93
2023-06-19T05:06:40.455Z,5.47
2023-06-19T05:09:07.332Z,4.28
2023-06-19T05:11:33.863Z,3.08
2023-06-19T05:14:00.486Z,5.10
2023-06-19T05:16:27.117Z,3.30
2023-06-19T05:18:53.662Z,4.85
2023-06-19T05:21:20.501Z,5.70
2023-06-19T05:23:52.151Z,6.65
2023-06-19T05:26:18.714Z,7.13
2023-06-19T05:28:45.177Z,7.07
2023-06-19T05:31:11.678Z,6.15
2023-06-19T05:33:38.216Z,7.22
2023-06-19T05:36:05.023Z,5.28
2023-06-19T05:38:31.984Z,5.57
2023-06-19T05:40:59.428Z,4.03
2023-06-19T05:43:26.023Z,3.83
2023-06-19T05:45:54.114Z,4.05
2023-06-19T05:48:20.861Z,4.57
2023-06-19T05:50:47.359Z,5.50
2023-06-19T05:53:15.752Z,5.30
2023-06-19T05:55:42.492Z,4.50
2023-06-19T05:58:10.324Z,4.50
2023-06-19T06:00:36.893Z,7.88
2023-06-19T06:03:03.709Z,6.35
2023-06-19T06:05:30.313Z,9.47
2023-06-19T06:07:57.040Z,8.50
2023-06-19T06:10:25.459Z,8.27
2023-06-19T06:12:52.420Z,10.27
2023-06-19T06:15:19.073Z,10.45
2023-06-19T06:17:45.637Z,9.77
2023-06-19T06:20:21.314Z,10.93
2023-06-19T06:22:47.942Z,10.70
2023-06-19T06:25:14.487Z,12.98
2023-06-19T06:27:41.625Z,9.45
2023-06-19T06:30:08.605Z,9.40
2023-06-19T06:32:35.319Z,11.02
2023-06-19T06:35:02.225Z,9.63
2023-06-19T06:37:28.736Z,10.77
2023-06-19T06:39:55.241Z,8.98
2023-06-19T06:42:21.744Z,7.43
2023-06-19T06:44:48.406Z,13.40
2023-06-19T06:47:14.956Z,14.15
2023-06-19T06:49:41.427Z,11.35
2023-06-19T06:52:08.235Z,13.05
2023-06-19T06:54:34.748Z,8.80
2023-06-19T06:57:01.398Z,13.82
2023-06-19T06:59:28.470Z,10.45
2023-06-19T07:01:58.221Z,15.70
2023-06-19T07:04:24.749Z,11.50
2023-06-19T07:06:51.756Z,14.30
2023-06-19T07:09:18.975Z,11.13
2023-06-19T07:11:45.708Z,11.95
2023-06-19T07:14:12.214Z,12.05
2023-06-19T07:16:38.710Z,12.30
2023-06-19T07:19:05.313Z,12.87
2023-06-19T07:21:32.384Z,13.13
2023-06-19T07:24:00.109Z,14.88
2023-06-19T07:26:27.182Z,11.27
2023-06-19T07:28:53.717Z,12.90
2023-06-19T07:31:20.250Z,13.83
2023-06-19T07:33:46.764Z,14.50
2023-06-19T07:36:15.211Z,16.02
2023-06-19T07:38:42.952Z,12.65
2023-06-19T07:41:11.032Z,13.13
2023-06-19T07:43:38.542Z,13.73
2023-06-19T07:46:05.699Z,15.15
2023-06-19T07:48:32.522Z,13.02
2023-06-19T07:50:59.062Z,14.05
2023-06-19T07:53:26.360Z,13.60
2023-06-19T07:55:53.059Z,14.27
2023-06-19T07:58:19.537Z,13.57
2023-06-19T08:00:46.076Z,16.73
2023-06-19T08:03:12.904Z,14.52
2023-06-19T08:05:39.674Z,14.48
2023-06-19T08:08:06.178Z,16.87
2023-06-19T08:10:33.152Z,26.08
2023-06-19T08:12:59.948Z,22.02
2023-06-19T08:15:26.448Z,18.92
2023-06-19T08:17:53.087Z,18.77
2023-06-19T08:20:21.033Z,16.37
2023-06-19T08:22:47.540Z,15.07
2023-06-19T08:25:14.114Z,23.10
2023-06-19T08:27:40.653Z,16.77
2023-06-19T08:30:08.063Z,13.65
2023-06-19T08:32:35.921Z,19.63
2023-06-19T08:35:03.271Z,16.20
2023-06-19T08:37:30.161Z,15.63
2023-06-19T08:39:57.298Z,17.95
2023-06-19T08:42:24.284Z,16.17
2023-06-19T08:44:50.936Z,14.90
2023-06-19T08:47:17.755Z,19.35
2023-06-19T08:49:44.722Z,18.50
2023-06-19T08:52:11.303Z,16.77
2023-06-19T08:54:45.297Z,17.40
2023-06-19T08:57:13.462Z,20.13
2023-06-19T08:59:40.264Z,17.60
2023-06-19T09:02:07.528Z,16.95
2023-06-19T09:04:34.880Z,16.50
2023-06-19T09:07:05.585Z,18.50
2023-06-19T09:09:33.975Z,16.90
2023-06-19T09:12:01.797Z,18.33
2023-06-19T09:14:42.915Z,18.15
2023-06-19T09:17:12.850Z,16.45
2023-06-19T09:19:41.168Z,18.02
2023-06-19T09:22:09.213Z,16.80
2023-06-19T09:24:37.847Z,18.65
2023-06-19T09:27:14.556Z,23.92
2023-06-19T09:29:45.422Z,20.48
2023-06-19T09:32:21.759Z,20.70
2023-06-19T09:34:51.991Z,20.47
2023-06-19T09:37:26.782Z,18.27
2023-06-19T09:39:58.367Z,19.38
2023-06-19T09:42:31.386Z,19.45
2023-06-19T09:45:05.242Z,19.35
2023-06-19T09:47:38.357Z,17.80
2023-06-19T09:50:07.211Z,18.98
2023-06-19T09:52:34.967Z,18.23
2023-06-19T09:55:06.370Z,20.02
2023-06-19T09:57:34.716Z,21.00
2023-06-19T10:00:16.742Z,23.33
2023-06-19T10:02:46.040Z,18.30
2023-06-19T10:05:16.048Z,17.95
2023-06-19T10:07:44.810Z,20.30
2023-06-19T10:10:23.653Z,17.25
2023-06-19T10:12:50.506Z,21.47
2023-06-19T10:15:16.986Z,19.42
2023-06-19T10:17:49.126Z,25.02
2023-06-19T10:20:33.034Z,19.70
2023-06-19T10:23:19.811Z,19.10
2023-06-19T10:25:58.834Z,19.97
2023-06-19T10:28:34.790Z,19.58
2023-06-19T10:31:09.594Z,17.00
2023-06-19T10:33:38.098Z,17.70
2023-06-19T10:36:19.999Z,19.08
2023-06-19T10:38:50.519Z,16.83
2023-06-19T10:41:18.403Z,17.67
2023-06-19T10:43:55.096Z,18.00
2023-06-19T10:46:23.088Z,18.45
2023-06-19T10:48:50.678Z,17.17
2023-06-19T10:51:20.782Z,18.17
2023-06-19T10:53:47.276Z,17.10
2023-06-19T10:56:13.765Z,20.40
2023-06-19T10:58:40.211Z,24.13
2023-06-19T11:01:06.907Z,21.58
2023-06-19T11:03:33.580Z,19.40
2023-06-19T11:06:00.207Z,18.65
2023-06-19T11:08:27.194Z,20.63
2023-06-19T11:10:53.732Z,22.10
2023-06-19T11:13:21.186Z,17.50
2023-06-19T11:15:51.570Z,17.90
2023-06-19T11:18:20.312Z,18.42
2023-06-19T11:20:52.100Z,18.02
2023-06-19T11:23:30.788Z,15.98
2023-06-19T11:26:05.202Z,16.63
2023-06-19T11:28:31.900Z,18.20
2023-06-19T11:31:03.938Z,16.35
2023-06-19T11:33:31.432Z,16.70
2023-06-19T11:36:01.442Z,21.52
2023-06-19T11:38:28.499Z,15.57
2023-06-19T11:40:57.366Z,15.93
2023-06-19T11:43:31.864Z,17.38
2023-06-19T11:46:06.596Z,18.23
2023-06-19T11:48:33.679Z,17.38
2023-06-19T11:51:00.172Z,18.02
2023-06-19T11:53:26.760Z,19.53
2023-06-19T11:55:53.520Z,16.98
2023-06-19T11:58:22.890Z,14.90
2023-06-19T12:00:49.913Z,16.73
2023-06-19T12:03:16.920Z,14.52
2023-06-19T12:05:44.598Z,11.83
2023-06-19T12:08:11.162Z,13.10
2023-06-19T12:10:37.775Z,13.80
2023-06-19T12:13:04.294Z,13.98
2023-06-19T12:15:30.931Z,16.08
2023-06-19T12:17:59.542Z,16.53
2023-06-19T12:20:26.700Z,13.38
2023-06-19T12:22:53.570Z,14.50
2023-06-19T12:25:22.535Z,14.63
2023-06-19T12:27:53.313Z,13.45
2023-06-19T12:30:21.814Z,14.80
2023-06-19T12:32:50.698Z,13.90
2023-06-19T12:35:17.686Z,13.38
2023-06-19T12:37:44.246Z,13.07
2023-06-19T12:40:11.983Z,13.57
2023-06-19T12:42:38.794Z,12.80
2023-06-19T12:45:05.967Z,14.32
2023-06-19T12:47:33.363Z,15.48
2023-06-19T12:49:59.880Z,13.27
2023-06-19T12:52:26.364Z,13.05
2023-06-19T12:54:52.836Z,13.75
2023-06-19T12:57:19.390Z,14.40
2023-06-19T12:59:45.987Z,14.45
2023-06-19T13:02:15.183Z,10.90
2023-06-19T13:04:43.384Z,10.40
2023-06-19T13:07:10.024Z,11.67
2023-06-19T13:09:37.018Z,12.98
2023-06-19T13:12:03.838Z,13.60
2023-06-19T13:14:30.448Z,12.77
2023-06-19T13:16:58.543Z,12.05
2023-06-19T13:19:26.005Z,13.10
2023-06-19T13:21:52.933Z,14.38
2023-06-19T13:24:19.483Z,11.43
2023-06-19T13:26:46.287Z,11.63
2023-06-19T13:29:14.346Z,13.88
2023-06-19T13:31:40.901Z,9.87
2023-06-19T13:34:07.440Z,10.75
2023-06-19T13:36:33.978Z,11.25
2023-06-19T13:39:00.484Z,9.70
2023-06-19T13:41:28.890Z,11.13
2023-06-19T13:43:55.368Z,11.10
2023-06-19T13:46:25.021Z,9.25
2023-06-19T13:48:52.799Z,10.07
2023-06-19T13:51:21.298Z,13.88
2023-06-19T13:53:48.970Z,9.48
2023-06-19T13:56:16.797Z,15.07
2023-06-19T13:58:43.360Z,9.57
2023-06-19T14:01:10.388Z,11.45
2023-06-19T14:03:39.918Z,10.65
2023-06-19T14:06:06.885Z,8.98
2023-06-19T14:08:33.964Z,11.23
2023-06-19T14:11:00.616Z,11.30
2023-06-19T14:13:27.172Z,11.20
2023-06-19T14:15:54.534Z,12.75
2023-06-19T14:18:21.121Z,11.70
2023-06-19T14:20:47.580Z,9.77
2023-06-19T14:23:14.130Z,10.15
2023-06-19T14:25:44.314Z,12.45
2023-06-19T14:28:11.655Z,7.45
2023-06-19T14:30:38.168Z,9.35
2023-06-19T14:33:04.702Z,8.45
2023-06-19T14:35:31.400Z,9.73
2023-06-19T14:37:58.281Z,14.05
2023-06-19T14:40:25.045Z,10.57
2023-06-19T14:42:51.903Z,9.07
2023-06-19T14:45:18.474Z,8.82
2023-06-19T14:47:45.137Z,8.75
2023-06-19T14:50:11.774Z,9.65
2023-06-19T14:52:38.383Z,8.95
2023-06-19T14:55:05.223Z,10.75
2023-06-19T14:57:31.889Z,9.75
2023-06-19T14:59:58.376Z,8.32
2023-06-19T15:02:24.908Z,9.90
2023-06-19T15:05:05.075Z,8.73
2023-06-19T15:07:33.689Z,10.43
2023-06-19T15:10:00.270Z,9.18
2023-06-19T15:12:26.818Z,9.63
2023-06-19T15:14:53.339Z,9.50
2023-06-19T15:17:19.807Z,11.20
2023-06-19T15:19:46.342Z,12.00
2023-06-19T15:22:12.922Z,9.55
2023-06-19T15:24:39.579Z,9.63
2023-06-19T15:27:06.390Z,9.10
2023-06-19T15:29:32.941Z,8.55
2023-06-19T15:31:59.467Z,9.38
2023-06-19T15:34:25.971Z,7.80
2023-06-19T15:36:52.461Z,7.85
2023-06-19T15:39:19.368Z,8.35
2023-06-19T15:41:48.372Z,7.97
2023-06-19T15:44:15.910Z,12.15
2023-06-19T15:46:42.529Z,8.53
2023-06-19T15:49:11.599Z,8.75
2023-06-19T15:51:38.252Z,7.13
2023-06-19T15:54:04.796Z,9.02
2023-06-19T15:56:31.972Z,6.97
2023-06-19T15:58:58.444Z,7.22
2023-06-19T16:01:25.312Z,8.82
2023-06-19T16:03:52.285Z,7.88
2023-06-19T16:06:47.738Z,9.07
2023-06-19T16:09:16.526Z,10.35
2023-06-19T16:11:44.358Z,9.05
2023-06-19T16:14:12.173Z,9.90
2023-06-19T16:16:38.864Z,12.27
2023-06-19T16:19:05.555Z,10.75
2023-06-19T16:21:31.978Z,13.63
2023-06-19T16:23:58.717Z,10.73
2023-06-19T16:26:25.409Z,11.23
2023-06-19T16:28:54.717Z,12.07
2023-06-19T16:31:21.355Z,13.18
2023-06-19T16:33:51.196Z,9.00
2023-06-19T16:36:18.093Z,7.72
2023-06-19T16:38:44.863Z,9.02
2023-06-19T16:41:11.549Z,8.98
2023-06-19T16:43:38.000Z,8.98
2023-06-19T16:46:04.628Z,8.90
2023-06-19T16:48:35.114Z,7.65
2023-06-19T16:51:02.827Z,5.80
2023-06-19T16:53:29.404Z,8.48
2023-06-19T16:55:57.426Z,9.20
2023-06-19T16:58:24.230Z,8.27
2023-06-19T17:00:52.298Z,9.30
2023-06-19T17:03:22.662Z,8.38
2023-06-19T17:05:49.772Z,9.85
2023-06-19T17:08:17.317Z,9.27
2023-06-19T17:10:43.928Z,7.13
2023-06-19T17:13:10.539Z,9.90
2023-06-19T17:15:37.303Z,8.75
2023-06-19T17:18:05.327Z,8.23
2023-06-19T17:20:35.131Z,5.90
2023-06-19T17:23:01.709Z,7.57
2023-06-19T17:25:29.469Z,7.75
2023-06-19T17:27:56.970Z,6.93
2023-06-19T17:30:24.122Z,8.05
2023-06-19T17:32:52.257Z,9.10
2023-06-19T17:35:22.804Z,9.30
2023-06-19T17:37:53.659Z,6.43
2023-06-19T17:40:21.985Z,6.90
2023-06-19T17:42:49.059Z,6.82
2023-06-19T17:45:15.731Z,9.25
2023-06-19T17:47:43.195Z,6.50
2023-06-19T17:50:12.988Z,6.05
2023-06-19T17:52:40.220Z,7.93
2023-06-19T17:55:10.492Z,10.77
2023-06-19T17:57:38.010Z,12.23
2023-06-19T18:00:05.820Z,9.97
2023-06-19T18:02:35.511Z,10.85
2023-06-19T18:05:02.119Z,10.88
2023-06-19T18:07:28.756Z,11.80
2023-06-19T18:09:56.524Z,11.23
2023-06-19T18:12:23.475Z,13.07
2023-06-19T18:14:50.120Z,11.55
2023-06-19T18:17:16.813Z,11.25
2023-06-19T18:19:43.544Z,12.82
2023-06-19T18:22:11.072Z,12.25
2023-06-19T18:24:37.762Z,14.00
2023-06-19T18:27:04.563Z,11.15
2023-06-19T18:29:31.856Z,12.05
2023-06-19T18:31:59.163Z,11.40
2023-06-19T18:34:27.475Z,9.88
2023-06-19T18:36:54.461Z,8.30
2023-06-19T18:39:21.070Z,9.57
2023-06-19T18:41:47.677Z,14.23
2023-06-19T18:44:14.397Z,11.40
2023-06-19T18:46:41.899Z,10.82
2023-06-19T18:49:08.503Z,12.18
2023-06-19T18:51:35.100Z,10.68
2023-06-19T18:54:01.732Z,8.10
2023-06-19T18:56:31.561Z,9.00
2023-06-19T18:58:58.223Z,9.55
2023-06-19T19:01:24.946Z,8.27
2023-06-19T19:03:51.459Z,8.43
2023-06-19T19:06:18.757Z,8.93
2023-06-19T19:08:45.582Z,8.98
2023-06-19T19:11:12.130Z,7.60
2023-06-19T19:13:38.622Z,7.47
2023-06-19T19:16:05.361Z,9.33
2023-06-19T19:18:32.336Z,8.18
2023-06-19T19:20:58.966Z,9.10
2023-06-19T19:23:25.577Z,9.43
2023-06-19T19:25:52.098Z,10.93
2023-06-19T19:28:18.623Z,11.23
2023-06-19T19:30:47.774Z,18.42
2023-06-19T19:33:14.448Z,13.35
2023-06-19T19:35:41.108Z,11.55
2023-06-19T19:38:07.650Z,8.18
2023-06-19T19:40:37.001Z,7.33
2023-06-19T19:43:03.718Z,9.98
2023-06-19T19:45:30.311Z,11.30
2023-06-19T19:47:56.862Z,7.43
2023-06-19T19:50:23.745Z,8.57
2023-06-19T19:52:50.479Z,8.07
2023-06-19T19:55:17.029Z,7.75
2023-06-19T19:57:43.514Z,12.88
2023-06-19T20:00:10.597Z,9.57
2023-06-19T20:02:37.329Z,7.88
2023-06-19T20:05:05.464Z,9.83
2023-06-19T20:07:32.109Z,10.52
2023-06-19T20:09:58.712Z,7.35
2023-06-19T20:12:27.058Z,6.78
2023-06-19T20:14:55.040Z,10.10
2023-06-19T20:17:21.518Z,11.50
2023-06-19T20:19:48.026Z,9.38
2023-06-19T20:22:14.560Z,11.00
2023-06-19T20:24:42.434Z,10.18
2023-06-19T20:27:11.204Z,9.63
2023-06-19T20:29:38.582Z,9.80
2023-06-19T20:32:05.659Z,9.77
2023-06-19T20:34:32.123Z,10.20
2023-06-19T20:37:00.064Z,11.75
2023-06-19T20:39:26.578Z,11.32
2023-06-19T20:41:53.032Z,9.37
2023-06-19T20:44:19.609Z,9.95
2023-06-19T20:46:46.133Z,9.63
2023-06-19T20:49:12.712Z,9.98
2023-06-19T20:51:39.180Z,14.38
2023-06-19T20:54:05.802Z,10.53
2023-06-19T20:56:32.321Z,11.38
2023-06-19T20:58:58.804Z,13.32
2023-06-19T21:01:25.961Z,11.60
2023-06-19T21:03:53.055Z,14.35
2023-06-19T21:06:21.414Z,14.57
2023-06-19T21:08:49.444Z,12.05
2023-06-19T21:11:17.303Z,16.88
2023-06-19T21:13:43.921Z,11.48
2023-06-19T21:16:11.888Z,12.55
2023-06-19T21:18:38.460Z,12.63
2023-06-19T21:21:05.000Z,11.73
2023-06-19T21:23:31.529Z,14.30
2023-06-19T21:25:57.964Z,13.13
2023-06-19T21:28:24.592Z,11.82
2023-06-19T21:30:51.067Z,13.57
2023-06-19T21:33:18.327Z,11.60
2023-06-19T21:35:44.855Z,10.60
2023-06-19T21:38:13.039Z,15.07
2023-06-19T21:40:39.581Z,12.15
2023-06-19T21:43:06.075Z,9.77
2023-06-19T21:45:32.584Z,12.55
2023-06-19T21:47:59.160Z,12.07
2023-06-19T21:50:25.888Z,12.77
2023-06-19T21:52:53.277Z,13.27
2023-06-19T21:55:20.190Z,11.17
2023-06-19T21:57:59.491Z,14.73
2023-06-19T22:00:27.809Z,12.27
2023-06-19T22:02:55.470Z,12.85
2023-06-19T22:05:23.138Z,10.18
2023-06-19T22:07:49.860Z,10.93
2023-06-19T22:10:16.315Z,11.52
2023-06-19T22:12:42.866Z,11.82
2023-06-19T22:15:09.540Z,12.20
2023-06-19T22:17:36.464Z,12.15
2023-06-19T22:20:04.399Z,12.13
2023-06-19T22:22:30.891Z,11.68
2023-06-19T22:24:57.463Z,11.93
2023-06-19T22:27:23.947Z,11.85
2023-06-19T22:29:50.429Z,10.73
2023-06-19T22:32:19.956Z,12.83
2023-06-19T22:34:46.495Z,10.93
2023-06-19T22:37:12.962Z,13.32
2023-06-19T22:39:39.926Z,11.05
2023-06-19T22:42:06.781Z,16.70
2023-06-19T22:44:33.348Z,10.20
2023-06-19T22:47:00.006Z,9.60
2023-06-19T22:49:30.302Z,16.90
2023-06-19T22:51:58.076Z,10.43
2023-06-19T22:54:25.291Z,12.10
2023-06-19T22:56:51.864Z,16.30
2023-06-19T22:59:18.356Z,10.82
2023-06-19T23:01:44.829Z,12.43
2023-06-19T23:04:11.413Z,13.88
2023-06-19T23:06:44.183Z,10.93
2023-06-19T23:09:11.818Z,11.43
2023-06-19T23:11:39.110Z,11.35
2023-06-19T23:14:06.160Z,10.68
2023-06-19T23:16:32.941Z,10.63
2023-06-19T23:19:01.198Z,10.60
2023-06-19T23:21:31.243Z,14.00
2023-06-19T23:23:58.784Z,8.98
2023-06-19T23:26:25.393Z,11.60
2023-06-19T23:28:52.762Z,11.18
2023-06-19T23:31:22.551Z,11.23
2023-06-19T23:33:53.349Z,9.07
2023-06-19T23:36:19.903Z,9.35
2023-06-19T23:38:48.852Z,10.50
2023-06-19T23:41:16.263Z,9.77
2023-06-19T23:43:42.677Z,8.73
2023-06-19T23:46:09.580Z,11.40
2023-06-19T23:48:36.117Z,9.45
2023-06-19T23:51:02.983Z,9.82
2023-06-19T23:53:29.458Z,10.48
2023-06-19T23:55:56.124Z,10.38
2023-06-19T23:58:23.109Z,11.50
